createdAt,value
2022-08-02T00:00:09.000Z,23.38
2022-08-02T00:01:07.000Z,23.38
2022-08-02T00:02:07.000Z,23.31
2022-08-02T00:03:08.000Z,23.31
2022-08-02T00:04:08.000Z,23.31
2022-08-02T00:05:08.000Z,23.31
2022-08-02T00:06:07.000Z,23.25
2022-08-02T00:07:07.000Z,23.19
2022-08-02T00:08:07.000Z,23.12
2022-08-02T00:09:07.000Z,23.00
2022-08-02T00:10:10.000Z,22.88
2022-08-02T00:11:07.000Z,22.88
2022-08-02T00:12:09.000Z,22.81
2022-08-02T00:13:08.000Z,22.81
2022-08-02T00:14:07.000Z,22.75
2022-08-02T00:15:08.000Z,22.75
2022-08-02T00:16:07.000Z,22.69
2022-08-02T00:17:07.000Z,22.75
2022-08-02T00:18:07.000Z,22.69
2022-08-02T00:19:07.000Z,22.69
2022-08-02T00:20:08.000Z,22.69
2022-08-02T00:21:07.000Z,22.69
2022-08-02T00:22:08.000Z,22.75
2022-08-02T00:23:07.000Z,22.69
2022-08-02T00:24:07.000Z,22.75
2022-08-02T00:25:08.000Z,22.69
2022-08-02T00:26:07.000Z,22.75
2022-08-02T00:27:07.000Z,22.75
2022-08-02T00:28:09.000Z,22.75
2022-08-02T00:29:07.000Z,22.75
2022-08-02T00:30:08.000Z,22.75
2022-08-02T00:31:07.000Z,22.75
2022-08-02T00:32:07.000Z,22.69
2022-08-02T00:33:07.000Z,22.75
2022-08-02T00:34:07.000Z,22.69
2022-08-02T00:35:08.000Z,22.75
2022-08-02T00:36:08.000Z,22.69
2022-08-02T00:37:07.000Z,22.75
2022-08-02T00:38:07.000Z,22.75
2022-08-02T00:39:07.000Z,22.69
2022-08-02T00:40:09.000Z,22.75
2022-08-02T00:41:14.000Z,22.69
2022-08-02T00:42:08.000Z,22.75
2022-08-02T00:43:09.000Z,22.69
2022-08-02T00:44:07.000Z,22.69
2022-08-02T00:45:08.000Z,22.69
2022-08-02T00:46:08.000Z,22.69
2022-08-02T00:47:08.000Z,22.69
2022-08-02T00:48:09.000Z,22.62
2022-08-02T00:49:08.000Z,22.69
2022-08-02T00:50:08.000Z,22.62
2022-08-02T00:51:08.000Z,22.69
2022-08-02T00:52:07.000Z,22.69
2022-08-02T00:53:08.000Z,22.69
2022-08-02T00:54:08.000Z,22.69
2022-08-02T00:55:08.000Z,22.69
2022-08-02T00:56:07.000Z,22.75
2022-08-02T00:57:07.000Z,22.69
2022-08-02T00:58:08.000Z,22.75
2022-08-02T00:59:07.000Z,22.69
2022-08-02T01:00:08.000Z,22.69
2022-08-02T01:01:07.000Z,22.69
2022-08-02T01:02:07.000Z,22.69
2022-08-02T01:03:07.000Z,22.69
2022-08-02T01:04:09.000Z,22.69
2022-08-02T01:05:08.000Z,22.69
2022-08-02T01:06:07.000Z,22.69
2022-08-02T01:07:07.000Z,22.62
2022-08-02T01:08:08.000Z,22.62
2022-08-02T01:09:07.000Z,22.62
2022-08-02T01:10:08.000Z,22.62
2022-08-02T01:11:07.000Z,22.56
2022-08-02T01:12:08.000Z,22.56
2022-08-02T01:13:07.000Z,22.56
2022-08-02T01:14:10.000Z,22.56
2022-08-02T01:15:09.000Z,22.56
2022-08-02T01:16:14.000Z,22.56
2022-08-02T01:17:18.000Z,22.56
2022-08-02T01:18:21.000Z,22.56
2022-08-02T01:19:27.000Z,22.56
2022-08-02T01:20:17.000Z,22.56
2022-08-02T01:21:28.000Z,22.56
2022-08-02T01:22:21.000Z,22.50
2022-08-02T01:23:23.000Z,22.50
2022-08-02T01:24:19.000Z,22.50
2022-08-02T01:25:27.000Z,22.50
2022-08-02T01:26:26.000Z,22.50
2022-08-02T01:27:22.000Z,22.44
2022-08-02T01:28:17.000Z,22.44
2022-08-02T01:29:18.000Z,22.38
2022-08-02T01:30:10.000Z,22.38
2022-08-02T01:31:18.000Z,22.38
2022-08-02T01:32:13.000Z,22.38
2022-08-02T01:33:15.000Z,22.38
2022-08-02T01:34:17.000Z,22.31
2022-08-02T01:35:13.000Z,22.38
2022-08-02T01:36:11.000Z,22.31
2022-08-02T01:37:15.000Z,22.38
2022-08-02T01:38:13.000Z,22.38
2022-08-02T01:39:13.000Z,22.38
2022-08-02T01:40:11.000Z,22.31
2022-08-02T01:41:13.000Z,22.31
2022-08-02T01:42:09.000Z,22.38
2022-08-02T01:43:09.000Z,22.31
2022-08-02T01:44:10.000Z,22.31
2022-08-02T01:45:10.000Z,22.31
2022-08-02T01:46:11.000Z,22.38
2022-08-02T01:47:15.000Z,22.31
2022-08-02T01:48:09.000Z,22.31
2022-08-02T01:49:13.000Z,22.38
2022-08-02T01:50:12.000Z,22.31
2022-08-02T01:51:11.000Z,22.31
2022-08-02T01:52:15.000Z,22.31
2022-08-02T01:53:09.000Z,22.31
2022-08-02T01:54:13.000Z,22.31
2022-08-02T01:55:12.000Z,22.31
2022-08-02T01:56:11.000Z,22.31
2022-08-02T01:57:11.000Z,22.25
2022-08-02T01:58:09.000Z,22.25
2022-08-02T01:59:12.000Z,22.25
2022-08-02T02:00:10.000Z,22.25
2022-08-02T02:01:10.000Z,22.25
2022-08-02T02:02:09.000Z,22.25
2022-08-02T02:03:12.000Z,22.25
2022-08-02T02:04:08.000Z,22.19
2022-08-02T02:05:14.000Z,22.25
2022-08-02T02:06:09.000Z,22.19
2022-08-02T02:07:08.000Z,22.19
2022-08-02T02:08:08.000Z,22.19
2022-08-02T02:09:09.000Z,22.19
2022-08-02T02:10:12.000Z,22.19
2022-08-02T02:11:08.000Z,22.12
2022-08-02T02:11:08.000Z,22.12
2022-08-02T02:12:15.000Z,22.12
2022-08-02T02:13:13.000Z,22.12
2022-08-02T02:14:09.000Z,22.12
2022-08-02T02:15:09.000Z,22.12
2022-08-02T02:16:09.000Z,22.12
2022-08-02T02:17:10.000Z,22.06
2022-08-02T02:17:10.000Z,22.06
2022-08-02T02:18:22.000Z,22.06
2022-08-02T02:19:09.000Z,22.06
2022-08-02T02:20:15.000Z,22.06
2022-08-02T02:21:07.000Z,22.06
2022-08-02T02:22:07.000Z,22.00
2022-08-02T02:23:08.000Z,22.00
2022-08-02T02:24:07.000Z,21.94
2022-08-02T02:25:09.000Z,21.94
2022-08-02T02:26:10.000Z,21.94
2022-08-02T02:27:10.000Z,21.88
2022-08-02T02:28:17.000Z,21.94
2022-08-02T02:29:09.000Z,21.88
2022-08-02T02:30:08.000Z,21.88
2022-08-02T02:31:14.000Z,21.88
2022-08-02T02:32:09.000Z,21.88
2022-08-02T02:33:10.000Z,21.88
2022-08-02T02:34:15.000Z,21.88
2022-08-02T02:35:09.000Z,21.88
2022-08-02T02:36:09.000Z,21.88
2022-08-02T02:37:16.000Z,21.88
2022-08-02T02:38:11.000Z,21.88
2022-08-02T02:39:10.000Z,21.88
2022-08-02T02:40:09.000Z,21.88
2022-08-02T02:41:08.000Z,21.81
2022-08-02T02:42:12.000Z,21.88
2022-08-02T02:43:10.000Z,21.81
2022-08-02T02:44:12.000Z,21.88
2022-08-02T02:45:09.000Z,21.81
2022-08-02T02:46:09.000Z,21.88
2022-08-02T02:47:10.000Z,21.81
2022-08-02T02:48:08.000Z,21.81
2022-08-02T02:49:09.000Z,21.81
2022-08-02T02:50:09.000Z,21.75
2022-08-02T02:51:09.000Z,21.81
2022-08-02T02:52:09.000Z,21.75
2022-08-02T02:53:11.000Z,21.81
2022-08-02T02:54:10.000Z,21.81
2022-08-02T02:55:09.000Z,21.81
2022-08-02T02:56:08.000Z,21.81
2022-08-02T02:57:09.000Z,21.81
2022-08-02T02:58:08.000Z,21.88
2022-08-02T02:59:09.000Z,21.81
2022-08-02T03:00:10.000Z,21.88
2022-08-02T03:01:13.000Z,21.88
2022-08-02T03:02:10.000Z,21.81
2022-08-02T03:03:08.000Z,21.81
2022-08-02T03:04:09.000Z,21.81
2022-08-02T03:05:09.000Z,21.75
2022-08-02T03:06:08.000Z,21.75
2022-08-02T03:07:08.000Z,21.69
2022-08-02T03:08:07.000Z,21.62
2022-08-02T03:09:08.000Z,21.62
2022-08-02T03:10:08.000Z,21.62
2022-08-02T03:11:08.000Z,21.56
2022-08-02T03:12:08.000Z,21.56
2022-08-02T03:13:08.000Z,21.50
2022-08-02T03:14:09.000Z,21.50
2022-08-02T03:15:12.000Z,21.44
2022-08-02T03:16:09.000Z,21.38
2022-08-02T03:17:07.000Z,21.38
2022-08-02T03:18:07.000Z,21.31
2022-08-02T03:19:08.000Z,21.31
2022-08-02T03:20:13.000Z,21.25
2022-08-02T03:21:10.000Z,21.19
2022-08-02T03:22:08.000Z,21.19
2022-08-02T03:23:07.000Z,21.12
2022-08-02T03:24:08.000Z,21.19
2022-08-02T03:25:09.000Z,21.19
2022-08-02T03:26:08.000Z,21.12
2022-08-02T03:27:07.000Z,21.12
2022-08-02T03:28:07.000Z,21.12
2022-08-02T03:29:08.000Z,21.12
2022-08-02T03:30:09.000Z,21.12
2022-08-02T03:31:08.000Z,21.19
2022-08-02T03:32:07.000Z,21.19
2022-08-02T03:33:07.000Z,21.25
2022-08-02T03:34:07.000Z,21.25
2022-08-02T03:35:09.000Z,21.25
2022-08-02T03:36:11.000Z,21.25
2022-08-02T03:37:07.000Z,21.25
2022-08-02T03:38:08.000Z,21.25
2022-08-02T03:39:09.000Z,21.25
2022-08-02T03:40:09.000Z,21.25
2022-08-02T03:41:09.000Z,21.25
2022-08-02T03:42:07.000Z,21.25
2022-08-02T03:43:08.000Z,21.25
2022-08-02T03:44:10.000Z,21.19
2022-08-02T03:45:10.000Z,21.25
2022-08-02T03:46:08.000Z,21.19
2022-08-02T03:47:07.000Z,21.19
2022-08-02T03:48:08.000Z,21.19
2022-08-02T03:49:08.000Z,21.19
2022-08-02T03:50:10.000Z,21.19
2022-08-02T03:51:08.000Z,21.25
2022-08-02T03:52:07.000Z,21.25
2022-08-02T03:53:07.000Z,21.25
2022-08-02T03:54:07.000Z,21.25
2022-08-02T03:55:09.000Z,21.25
2022-08-02T03:56:07.000Z,21.25
2022-08-02T03:57:08.000Z,21.31
2022-08-02T03:58:07.000Z,21.31
2022-08-02T03:59:09.000Z,21.31
2022-08-02T04:00:09.000Z,21.31
2022-08-02T04:01:07.000Z,21.31
2022-08-02T04:02:08.000Z,21.31
2022-08-02T04:03:08.000Z,21.31
2022-08-02T04:04:08.000Z,21.31
2022-08-02T04:05:08.000Z,21.31
2022-08-02T04:06:08.000Z,21.38
2022-08-02T04:07:08.000Z,21.31
2022-08-02T04:08:08.000Z,21.25
2022-08-02T04:09:08.000Z,21.19
2022-08-02T04:10:09.000Z,21.12
2022-08-02T04:11:13.000Z,21.06
2022-08-02T04:12:08.000Z,21.06
2022-08-02T04:13:08.000Z,21.06
2022-08-02T04:14:10.000Z,21.06
2022-08-02T04:15:11.000Z,21.12
2022-08-02T04:16:31.000Z,21.06
2022-08-02T04:17:10.000Z,21.06
2022-08-02T04:18:08.000Z,21.12
2022-08-02T04:19:13.000Z,21.06
2022-08-02T04:20:18.000Z,21.12
2022-08-02T04:21:13.000Z,21.19
2022-08-02T04:22:15.000Z,21.19
2022-08-02T04:23:13.000Z,21.12
2022-08-02T04:24:10.000Z,21.12
2022-08-02T04:25:10.000Z,21.12
2022-08-02T04:26:09.000Z,21.12
2022-08-02T04:27:09.000Z,21.06
2022-08-02T04:27:09.000Z,21.06
2022-08-02T04:28:18.000Z,21.06
2022-08-02T04:29:09.000Z,21.06
2022-08-02T04:30:09.000Z,21.00
2022-08-02T04:31:08.000Z,21.00
2022-08-02T04:32:08.000Z,20.94
2022-08-02T04:33:08.000Z,20.88
2022-08-02T04:34:07.000Z,20.88
2022-08-02T04:35:07.000Z,20.88
2022-08-02T04:36:08.000Z,20.81
2022-08-02T04:37:10.000Z,20.81
2022-08-02T04:38:07.000Z,20.81
2022-08-02T04:39:07.000Z,20.81
2022-08-02T04:40:11.000Z,20.88
2022-08-02T04:41:07.000Z,20.88
2022-08-02T04:42:07.000Z,20.88
2022-08-02T04:43:07.000Z,20.88
2022-08-02T04:44:07.000Z,20.88
2022-08-02T04:45:09.000Z,20.88
2022-08-02T04:46:07.000Z,20.88
2022-08-02T04:47:07.000Z,20.88
2022-08-02T04:48:07.000Z,20.94
2022-08-02T04:49:07.000Z,20.94
2022-08-02T04:50:07.000Z,20.94
2022-08-02T04:51:07.000Z,20.94
2022-08-02T04:52:07.000Z,20.94
2022-08-02T04:53:07.000Z,21.00
2022-08-02T04:54:08.000Z,21.00
2022-08-02T04:55:07.000Z,21.00
2022-08-02T04:56:07.000Z,21.00
2022-08-02T04:57:12.000Z,21.06
2022-08-02T04:58:07.000Z,21.06
2022-08-02T04:59:07.000Z,21.06
2022-08-02T05:00:07.000Z,21.06
2022-08-02T05:01:07.000Z,21.06
2022-08-02T05:02:07.000Z,21.06
2022-08-02T05:03:07.000Z,21.06
2022-08-02T05:04:07.000Z,21.06
2022-08-02T05:05:08.000Z,21.00
2022-08-02T05:06:07.000Z,21.00
2022-08-02T05:07:07.000Z,21.00
2022-08-02T05:08:07.000Z,21.00
2022-08-02T05:09:08.000Z,21.00
2022-08-02T05:10:08.000Z,20.94
2022-08-02T05:11:07.000Z,21.00
2022-08-02T05:12:08.000Z,21.00
2022-08-02T05:13:07.000Z,21.00
2022-08-02T05:14:07.000Z,21.00
2022-08-02T05:15:09.000Z,21.00
2022-08-02T05:16:07.000Z,21.06
2022-08-02T05:17:07.000Z,21.06
2022-08-02T05:18:08.000Z,21.06
2022-08-02T05:19:07.000Z,21.12
2022-08-02T05:20:08.000Z,21.12
2022-08-02T05:21:08.000Z,21.19
2022-08-02T05:22:07.000Z,21.12
2022-08-02T05:23:08.000Z,21.19
2022-08-02T05:24:08.000Z,21.12
2022-08-02T05:25:08.000Z,21.19
2022-08-02T05:26:08.000Z,21.19
2022-08-02T05:27:07.000Z,21.12
2022-08-02T05:28:07.000Z,21.12
2022-08-02T05:29:08.000Z,21.12
2022-08-02T05:30:08.000Z,21.19
2022-08-02T05:31:07.000Z,21.12
2022-08-02T05:32:07.000Z,21.19
2022-08-02T05:33:07.000Z,21.19
2022-08-02T05:34:07.000Z,21.19
2022-08-02T05:35:08.000Z,21.19
2022-08-02T05:36:08.000Z,21.12
2022-08-02T05:37:07.000Z,21.06
2022-08-02T05:38:07.000Z,21.06
2022-08-02T05:39:08.000Z,21.06
2022-08-02T05:40:08.000Z,21.06
2022-08-02T05:41:07.000Z,21.12
2022-08-02T05:42:07.000Z,21.12
2022-08-02T05:43:12.000Z,21.19
2022-08-02T05:44:07.000Z,21.25
2022-08-02T05:45:08.000Z,21.25
2022-08-02T05:46:07.000Z,21.25
2022-08-02T05:47:07.000Z,21.25
2022-08-02T05:48:07.000Z,21.25
2022-08-02T05:49:07.000Z,21.19
2022-08-02T05:50:08.000Z,21.19
2022-08-02T05:51:11.000Z,21.25
2022-08-02T05:52:13.000Z,21.25
2022-08-02T05:53:40.000Z,21.25
2022-08-02T05:54:23.000Z,21.25
2022-08-02T05:55:15.000Z,21.25
2022-08-02T05:56:22.000Z,21.25
2022-08-02T05:57:21.000Z,21.25
2022-08-02T05:58:16.000Z,21.25
2022-08-02T05:59:16.000Z,21.19
2022-08-02T06:00:12.000Z,21.19
2022-08-02T06:01:12.000Z,21.19
2022-08-02T06:02:27.000Z,21.12
2022-08-02T06:03:30.000Z,21.19
2022-08-02T06:04:14.000Z,21.12
2022-08-02T06:05:16.000Z,21.25
2022-08-02T06:06:12.000Z,21.25
2022-08-02T06:07:10.000Z,21.31
2022-08-02T06:08:10.000Z,21.31
2022-08-02T06:09:13.000Z,21.38
2022-08-02T06:10:09.000Z,21.44
2022-08-02T06:11:12.000Z,21.44
2022-08-02T06:12:12.000Z,21.50
2022-08-02T06:13:13.000Z,21.50
2022-08-02T06:14:09.000Z,21.50
2022-08-02T06:15:09.000Z,21.44
2022-08-02T06:16:09.000Z,21.44
2022-08-02T06:17:08.000Z,21.44
2022-08-02T06:18:08.000Z,21.44
2022-08-02T06:19:10.000Z,21.50
2022-08-02T06:20:10.000Z,21.44
2022-08-02T06:21:09.000Z,21.50
2022-08-02T06:21:09.000Z,21.50
2022-08-02T06:22:40.000Z,21.44
2022-08-02T06:23:08.000Z,21.38
2022-08-02T06:24:09.000Z,21.38
2022-08-02T06:25:09.000Z,21.38
2022-08-02T06:26:11.000Z,21.38
2022-08-02T06:27:08.000Z,21.38
2022-08-02T06:28:08.000Z,21.44
2022-08-02T06:29:08.000Z,21.44
2022-08-02T06:30:08.000Z,21.44
2022-08-02T06:31:08.000Z,21.50
2022-08-02T06:32:09.000Z,21.56
2022-08-02T06:33:08.000Z,21.62
2022-08-02T06:34:08.000Z,21.62
2022-08-02T06:35:08.000Z,21.69
2022-08-02T06:36:20.000Z,21.75
2022-08-02T06:37:16.000Z,21.81
2022-08-02T06:38:10.000Z,21.88
2022-08-02T06:39:17.000Z,21.88
2022-08-02T06:40:16.000Z,21.94
2022-08-02T06:41:11.000Z,21.94
2022-08-02T06:42:11.000Z,22.06
2022-08-02T06:43:30.000Z,22.06
2022-08-02T06:44:08.000Z,22.12
2022-08-02T06:45:07.000Z,22.19
2022-08-02T06:46:07.000Z,22.19
2022-08-02T06:46:07.000Z,22.19
2022-08-02T06:47:12.000Z,22.25
2022-08-02T06:48:08.000Z,22.25
2022-08-02T06:49:07.000Z,22.31
2022-08-02T06:50:08.000Z,22.25
2022-08-02T06:51:07.000Z,22.31
2022-08-02T06:52:07.000Z,22.38
2022-08-02T06:53:08.000Z,22.38
2022-08-02T06:54:07.000Z,22.44
2022-08-02T06:55:07.000Z,22.44
2022-08-02T06:56:08.000Z,22.44
2022-08-02T06:57:08.000Z,22.38
2022-08-02T06:58:07.000Z,22.31
2022-08-02T06:59:07.000Z,22.38
2022-08-02T07:00:08.000Z,22.31
2022-08-02T07:01:08.000Z,22.31
2022-08-02T07:02:09.000Z,22.38
2022-08-02T07:03:07.000Z,22.38
2022-08-02T07:04:07.000Z,22.38
2022-08-02T07:05:08.000Z,22.44
2022-08-02T07:06:07.000Z,22.50
2022-08-02T07:07:07.000Z,22.50
2022-08-02T07:08:08.000Z,22.56
2022-08-02T07:09:08.000Z,22.56
2022-08-02T07:10:08.000Z,22.62
2022-08-02T07:11:08.000Z,22.62
2022-08-02T07:12:08.000Z,22.69
2022-08-02T07:13:08.000Z,22.75
2022-08-02T07:14:07.000Z,22.75
2022-08-02T07:15:09.000Z,22.75
2022-08-02T07:16:07.000Z,22.75
2022-08-02T07:17:08.000Z,22.81
2022-08-02T07:18:13.000Z,22.81
2022-08-02T07:19:08.000Z,22.88
2022-08-02T07:20:09.000Z,22.88
2022-08-02T07:21:08.000Z,22.88
2022-08-02T07:22:08.000Z,22.94
2022-08-02T07:23:08.000Z,22.94
2022-08-02T07:24:08.000Z,23.00
2022-08-02T07:25:08.000Z,22.94
2022-08-02T07:26:08.000Z,23.00
2022-08-02T07:27:08.000Z,23.00
2022-08-02T07:28:08.000Z,23.06
2022-08-02T07:29:08.000Z,23.00
2022-08-02T07:30:08.000Z,23.06
2022-08-02T07:31:08.000Z,23.06
2022-08-02T07:32:08.000Z,23.06
2022-08-02T07:33:08.000Z,23.12
2022-08-02T07:34:08.000Z,23.12
2022-08-02T07:35:08.000Z,23.12
2022-08-02T07:36:08.000Z,23.12
2022-08-02T07:37:08.000Z,23.12
2022-08-02T07:38:07.000Z,23.12
2022-08-02T07:39:07.000Z,23.12
2022-08-02T07:40:09.000Z,23.19
2022-08-02T07:41:07.000Z,23.12
2022-08-02T07:42:07.000Z,23.19
2022-08-02T07:43:07.000Z,23.19
2022-08-02T07:44:07.000Z,23.19
2022-08-02T07:45:08.000Z,23.19
2022-08-02T07:46:07.000Z,23.19
2022-08-02T07:47:07.000Z,23.19
2022-08-02T07:48:08.000Z,23.25
2022-08-02T07:49:07.000Z,23.31
2022-08-02T07:50:09.000Z,23.38
2022-08-02T07:51:07.000Z,23.44
2022-08-02T07:52:07.000Z,23.50
2022-08-02T07:53:07.000Z,23.56
2022-08-02T07:54:07.000Z,23.62
2022-08-02T07:55:09.000Z,23.69
2022-08-02T07:56:07.000Z,23.75
2022-08-02T07:57:07.000Z,23.69
2022-08-02T07:58:08.000Z,23.69
2022-08-02T07:59:08.000Z,23.75
2022-08-02T08:00:11.000Z,23.81
2022-08-02T08:01:08.000Z,23.81
2022-08-02T08:02:07.000Z,23.81
2022-08-02T08:03:07.000Z,23.81
2022-08-02T08:04:07.000Z,23.81
2022-08-02T08:05:08.000Z,23.94
2022-08-02T08:06:07.000Z,23.94
2022-08-02T08:07:10.000Z,24.06
2022-08-02T08:08:07.000Z,24.12
2022-08-02T08:09:09.000Z,24.19
2022-08-02T08:10:08.000Z,24.19
2022-08-02T08:11:07.000Z,24.25
2022-08-02T08:12:08.000Z,24.25
2022-08-02T08:13:07.000Z,24.25
2022-08-02T08:14:07.000Z,24.31
2022-08-02T08:15:08.000Z,24.31
2022-08-02T08:16:07.000Z,24.38
2022-08-02T08:17:07.000Z,24.38
2022-08-02T08:18:07.000Z,24.44
2022-08-02T08:19:07.000Z,24.44
2022-08-02T08:20:08.000Z,24.38
2022-08-02T08:21:08.000Z,24.31
2022-08-02T08:22:07.000Z,24.25
2022-08-02T08:23:07.000Z,24.19
2022-08-02T08:24:07.000Z,24.19
2022-08-02T08:25:07.000Z,24.19
2022-08-02T08:26:07.000Z,24.25
2022-08-02T08:27:12.000Z,24.25
2022-08-02T08:28:07.000Z,24.25
2022-08-02T08:29:07.000Z,24.19
2022-08-02T08:30:08.000Z,24.19
2022-08-02T08:31:07.000Z,24.25
2022-08-02T08:32:07.000Z,24.19
2022-08-02T08:33:07.000Z,24.19
2022-08-02T08:34:07.000Z,24.25
2022-08-02T08:35:07.000Z,24.25
2022-08-02T08:36:07.000Z,24.31
2022-08-02T08:37:07.000Z,24.44
2022-08-02T08:38:07.000Z,24.56
2022-08-02T08:39:08.000Z,24.44
2022-08-02T08:40:09.000Z,24.44
2022-08-02T08:41:07.000Z,24.50
2022-08-02T08:42:07.000Z,24.62
2022-08-02T08:43:07.000Z,24.69
2022-08-02T08:44:07.000Z,24.69
2022-08-02T08:45:08.000Z,24.75
2022-08-02T08:46:09.000Z,24.75
2022-08-02T08:47:07.000Z,24.81
2022-08-02T08:48:13.000Z,24.81
2022-08-02T08:49:17.000Z,24.88
2022-08-02T08:50:19.000Z,24.94
2022-08-02T08:51:14.000Z,24.94
2022-08-02T08:52:09.000Z,24.94
2022-08-02T08:53:07.000Z,24.94
2022-08-02T08:54:14.000Z,25.06
2022-08-02T08:55:08.000Z,25.06
2022-08-02T08:56:10.000Z,25.19
2022-08-02T08:57:08.000Z,25.25
2022-08-02T08:58:07.000Z,25.25
2022-08-02T08:59:08.000Z,25.25
2022-08-02T09:00:11.000Z,25.25
2022-08-02T09:01:08.000Z,25.31
2022-08-02T09:02:10.000Z,25.31
2022-08-02T09:03:08.000Z,25.38
2022-08-02T09:04:07.000Z,25.38
2022-08-02T09:05:12.000Z,25.44
2022-08-02T09:06:07.000Z,25.44
2022-08-02T09:07:07.000Z,25.38
2022-08-02T09:08:07.000Z,25.44
2022-08-02T09:09:07.000Z,25.44
2022-08-02T09:10:30.000Z,25.50
2022-08-02T09:11:12.000Z,25.56
2022-08-02T09:12:13.000Z,25.62
2022-08-02T09:13:17.000Z,25.69
2022-08-02T09:14:07.000Z,25.75
2022-08-02T09:15:09.000Z,25.81
2022-08-02T09:16:07.000Z,25.81
2022-08-02T09:17:09.000Z,25.88
2022-08-02T09:18:08.000Z,25.94
2022-08-02T09:19:17.000Z,25.94
2022-08-02T09:20:08.000Z,26.00
2022-08-02T09:21:08.000Z,26.06
2022-08-02T09:22:09.000Z,26.06
2022-08-02T09:23:09.000Z,26.12
2022-08-02T09:24:16.000Z,26.19
2022-08-02T09:25:14.000Z,26.25
2022-08-02T09:26:12.000Z,26.31
2022-08-02T09:27:16.000Z,26.31
2022-08-02T09:28:08.000Z,26.38
2022-08-02T09:29:07.000Z,26.38
2022-08-02T09:30:12.000Z,26.44
2022-08-02T09:31:14.000Z,26.44
2022-08-02T09:32:07.000Z,26.44
2022-08-02T09:33:08.000Z,26.38
2022-08-02T09:34:08.000Z,26.38
2022-08-02T09:35:08.000Z,26.38
2022-08-02T09:36:12.000Z,26.38
2022-08-02T09:37:29.000Z,26.38
2022-08-02T09:38:13.000Z,26.38
2022-08-02T09:39:10.000Z,26.38
2022-08-02T09:40:09.000Z,26.38
2022-08-02T09:41:28.000Z,26.31
2022-08-02T09:42:09.000Z,26.38
2022-08-02T09:43:08.000Z,26.38
2022-08-02T09:44:10.000Z,26.38
2022-08-02T09:45:08.000Z,26.38
2022-08-02T09:46:15.000Z,26.38
2022-08-02T09:47:13.000Z,26.38
2022-08-02T09:48:08.000Z,26.38
2022-08-02T09:49:12.000Z,26.44
2022-08-02T09:50:08.000Z,26.50
2022-08-02T09:51:07.000Z,26.50
2022-08-02T09:52:07.000Z,26.56
2022-08-02T09:53:12.000Z,26.56
2022-08-02T09:54:09.000Z,26.50
2022-08-02T09:55:09.000Z,26.56
2022-08-02T09:56:07.000Z,26.62
2022-08-02T09:57:07.000Z,26.62
2022-08-02T09:58:16.000Z,26.69
2022-08-02T09:59:08.000Z,26.69
2022-08-02T10:00:10.000Z,26.75
2022-08-02T10:01:08.000Z,26.81
2022-08-02T10:02:09.000Z,26.88
2022-08-02T10:03:10.000Z,26.88
2022-08-02T10:04:11.000Z,26.94
2022-08-02T10:05:08.000Z,26.94
2022-08-02T10:06:07.000Z,27.00
2022-08-02T10:07:08.000Z,26.94
2022-08-02T10:08:07.000Z,27.00
2022-08-02T10:09:09.000Z,26.94
2022-08-02T10:10:08.000Z,26.88
2022-08-02T10:11:07.000Z,26.94
2022-08-02T10:12:07.000Z,26.88
2022-08-02T10:13:08.000Z,26.88
2022-08-02T10:14:08.000Z,26.88
2022-08-02T10:15:08.000Z,27.00
2022-08-02T10:16:08.000Z,27.00
2022-08-02T10:17:07.000Z,27.06
2022-08-02T10:18:07.000Z,27.12
2022-08-02T10:19:07.000Z,27.19
2022-08-02T10:20:07.000Z,27.25
2022-08-02T10:21:13.000Z,27.50
2022-08-02T10:22:12.000Z,27.44
2022-08-02T10:23:11.000Z,27.38
2022-08-02T10:24:10.000Z,27.44
2022-08-02T10:25:07.000Z,27.38
2022-08-02T10:26:07.000Z,27.31
2022-08-02T10:27:13.000Z,27.25
2022-08-02T10:28:08.000Z,27.25
2022-08-02T10:29:09.000Z,27.19
2022-08-02T10:30:09.000Z,27.25
2022-08-02T10:31:08.000Z,27.19
2022-08-02T10:32:10.000Z,27.12
2022-08-02T10:33:09.000Z,27.19
2022-08-02T10:34:10.000Z,27.19
2022-08-02T10:35:15.000Z,27.19
2022-08-02T10:36:08.000Z,27.19
2022-08-02T10:37:09.000Z,27.25
2022-08-02T10:38:09.000Z,27.25
2022-08-02T10:39:07.000Z,27.31
2022-08-02T10:40:22.000Z,27.31
2022-08-02T10:41:07.000Z,27.38
2022-08-02T10:42:07.000Z,27.38
2022-08-02T10:43:07.000Z,27.44
2022-08-02T10:44:07.000Z,27.44
2022-08-02T10:45:09.000Z,27.38
2022-08-02T10:46:17.000Z,27.38
2022-08-02T10:47:27.000Z,27.38
2022-08-02T10:48:09.000Z,27.44
2022-08-02T10:49:12.000Z,27.44
2022-08-02T10:50:07.000Z,27.50
2022-08-02T10:51:07.000Z,27.56
2022-08-02T10:52:07.000Z,27.62
2022-08-02T10:53:17.000Z,27.69
2022-08-02T10:54:07.000Z,27.81
2022-08-02T10:55:10.000Z,27.81
2022-08-02T10:56:07.000Z,27.94
2022-08-02T10:57:13.000Z,28.00
2022-08-02T10:58:15.000Z,28.06
2022-08-02T10:59:17.000Z,28.06
2022-08-02T11:00:27.000Z,28.12
2022-08-02T11:01:17.000Z,28.25
2022-08-02T11:02:07.000Z,28.25
2022-08-02T11:03:27.000Z,28.25
2022-08-02T11:04:07.000Z,28.31
2022-08-02T11:05:12.000Z,28.38
2022-08-02T11:06:12.000Z,28.38
2022-08-02T11:07:13.000Z,28.44
2022-08-02T11:08:17.000Z,28.44
2022-08-02T11:09:17.000Z,28.50
2022-08-02T11:10:17.000Z,28.44
2022-08-02T11:11:17.000Z,28.50
2022-08-02T11:12:13.000Z,28.50
2022-08-02T11:13:14.000Z,28.50
2022-08-02T11:14:12.000Z,28.38
2022-08-02T11:15:07.000Z,28.38
2022-08-02T11:16:07.000Z,28.38
2022-08-02T11:17:13.000Z,28.25
2022-08-02T11:18:07.000Z,28.25
2022-08-02T11:19:07.000Z,28.19
2022-08-02T11:20:14.000Z,28.19
2022-08-02T11:21:17.000Z,28.06
2022-08-02T11:22:13.000Z,28.06
2022-08-02T11:23:17.000Z,28.06
2022-08-02T11:24:17.000Z,28.12
2022-08-02T11:25:17.000Z,28.19
2022-08-02T11:26:17.000Z,28.19
2022-08-02T11:27:17.000Z,28.19
2022-08-02T11:28:09.000Z,28.19
2022-08-02T11:29:07.000Z,28.12
2022-08-02T11:30:11.000Z,28.12
2022-08-02T11:31:07.000Z,28.12
2022-08-02T11:32:15.000Z,28.06
2022-08-02T11:33:07.000Z,28.12
2022-08-02T11:34:08.000Z,28.12
2022-08-02T11:35:07.000Z,28.19
2022-08-02T11:36:07.000Z,28.12
2022-08-02T11:37:07.000Z,28.19
2022-08-02T11:38:27.000Z,28.25
2022-08-02T11:39:13.000Z,28.31
2022-08-02T11:40:15.000Z,28.25
2022-08-02T11:41:08.000Z,28.25
2022-08-02T11:42:07.000Z,28.25
2022-08-02T11:43:15.000Z,28.25
2022-08-02T11:44:07.000Z,28.19
2022-08-02T11:45:07.000Z,28.19
2022-08-02T11:46:12.000Z,28.19
2022-08-02T11:47:06.000Z,28.25
2022-08-02T11:48:06.000Z,28.38
2022-08-02T11:49:13.000Z,28.38
2022-08-02T11:50:08.000Z,28.38
2022-08-02T11:51:15.000Z,28.44
2022-08-02T11:52:08.000Z,28.44
2022-08-02T11:53:12.000Z,28.44
2022-08-02T11:54:06.000Z,28.44
2022-08-02T11:55:08.000Z,28.44
2022-08-02T11:56:07.000Z,28.56
2022-08-02T11:57:13.000Z,28.50
2022-08-02T11:58:09.000Z,28.56
2022-08-02T11:59:08.000Z,28.62
2022-08-02T12:00:13.000Z,28.62
2022-08-02T12:01:07.000Z,28.62
2022-08-02T12:02:07.000Z,28.62
2022-08-02T12:03:07.000Z,28.62
2022-08-02T12:04:06.000Z,28.62
2022-08-02T12:05:07.000Z,28.69
2022-08-02T12:06:06.000Z,28.75
2022-08-02T12:07:07.000Z,28.88
2022-08-02T12:08:07.000Z,28.94
2022-08-02T12:09:10.000Z,29.00
2022-08-02T12:10:10.000Z,29.06
2022-08-02T12:11:06.000Z,29.12
2022-08-02T12:12:06.000Z,29.25
2022-08-02T12:13:06.000Z,29.31
2022-08-02T12:14:07.000Z,29.38
2022-08-02T12:15:07.000Z,29.19
2022-08-02T12:16:23.000Z,29.19
2022-08-02T12:17:12.000Z,29.25
2022-08-02T12:18:14.000Z,29.31
2022-08-02T12:19:12.000Z,29.31
2022-08-02T12:20:08.000Z,29.38
2022-08-02T12:21:17.000Z,29.44
2022-08-02T12:22:27.000Z,29.44
2022-08-02T12:23:07.000Z,29.44
2022-08-02T12:24:07.000Z,29.50
2022-08-02T12:25:15.000Z,29.44
2022-08-02T12:26:10.000Z,29.50
2022-08-02T12:27:07.000Z,29.44
2022-08-02T12:28:16.000Z,29.44
2022-08-02T12:29:07.000Z,29.44
2022-08-02T12:30:12.000Z,29.38
2022-08-02T12:31:10.000Z,29.44
2022-08-02T12:32:21.000Z,29.50
2022-08-02T12:33:07.000Z,29.50
2022-08-02T12:34:16.000Z,29.50
2022-08-02T12:35:13.000Z,29.50
2022-08-02T12:36:14.000Z,29.44
2022-08-02T12:37:08.000Z,29.44
2022-08-02T12:38:08.000Z,29.44
2022-08-02T12:39:12.000Z,29.50
2022-08-02T12:40:17.000Z,29.50
2022-08-02T12:41:11.000Z,29.56
2022-08-02T12:42:13.000Z,29.69
2022-08-02T12:43:19.000Z,29.81
2022-08-02T12:44:13.000Z,29.81
2022-08-02T12:45:07.000Z,29.94
2022-08-02T12:46:14.000Z,30.00
2022-08-02T12:47:07.000Z,30.06